sensor_id;sensor_type;location;lat;lon;timestamp;temperature;humidity
22161;DHT22;49035;48.812;11.762;2022-11-15T00:01:36;-0.10;99.90
22161;DHT22;49035;48.812;11.762;2022-11-15T00:04:03;-0.10;99.90
22161;DHT22;49035;48.812;11.762;2022-11-15T00:06:29;0.00;99.90
22161;DHT22;49035;48.812;11.762;2022-11-15T00:08:57;0.10;99.90
22161;DHT22;49035;48.812;11.762;2022-11-15T00:11:23;0.00;99.90
22161;DHT22;49035;48.812;11.762;2022-11-15T00:13:48;0.00;99.90
22161;DHT22;49035;48.812;11.762;2022-11-15T00:16:14;-0.10;99.90
22161;DHT22;49035;48.812;11.762;2022-11-15T00:18:40;-0.20;99.90
22161;DHT22;49035;48.812;11.762;2022-11-15T00:21:09;-0.20;99.90
22161;DHT22;49035;48.812;11.762;2022-11-15T00:23:35;-0.10;99.90
22161;DHT22;49035;48.812;11.762;2022-11-15T00:26:00;0.00;99.90
22161;DHT22;49035;48.812;11.762;2022-11-15T00:28:26;0.00;99.90
22161;DHT22;49035;48.812;11.762;2022-11-15T00:30:52;0.00;99.90
22161;DHT22;49035;48.812;11.762;2022-11-15T00:33:18;0.00;99.90
22161;DHT22;49035;48.812;11.762;2022-11-15T00:35:43;-0.10;99.90
22161;DHT22;49035;48.812;11.762;2022-11-15T00:38:09;-0.20;99.90
22161;DHT22;49035;48.812;11.762;2022-11-15T00:40:34;-0.20;99.90
22161;DHT22;49035;48.812;11.762;2022-11-15T00:43:00;-0.20;99.90
22161;DHT22;49035;48.812;11.762;2022-11-15T00:45:26;-0.20;99.90
22161;DHT22;49035;48.812;11.762;2022-11-15T00:47:52;-0.10;99.90
22161;DHT22;49035;48.812;11.762;2022-11-15T00:50:18;-0.20;99.90
22161;DHT22;49035;48.812;11.762;2022-11-15T00:52:44;-0.30;99.90
22161;DHT22;49035;48.812;11.762;2022-11-15T00:55:14;-0.30;99.90
22161;DHT22;49035;48.812;11.762;2022-11-15T00:57:40;0.00;99.90
22161;DHT22;49035;48.812;11.762;2022-11-15T01:00:06;-0.10;99.90
22161;DHT22;49035;48.812;11.762;2022-11-15T01:02:32;-0.20;99.90
22161;DHT22;49035;48.812;11.762;2022-11-15T01:04:58;-0.30;99.90
22161;DHT22;49035;48.812;11.762;2022-11-15T01:07:23;-0.40;99.90
22161;DHT22;49035;48.812;11.762;2022-11-15T01:09:49;-0.40;99.90
22161;DHT22;49035;48.812;11.762;2022-11-15T01:12:15;-0.50;99.90
22161;DHT22;49035;48.812;11.762;2022-11-15T01:14:40;-0.60;99.90
22161;DHT22;49035;48.812;11.762;2022-11-15T01:17:06;-0.60;99.90
22161;DHT22;49035;48.812;11.762;2022-11-15T01:19:31;-0.60;99.90
22161;DHT22;49035;48.812;11.762;2022-11-15T01:21:57;-0.70;99.90
22161;DHT22;49035;48.812;11.762;2022-11-15T01:24:22;-0.80;99.90
22161;DHT22;49035;48.812;11.762;2022-11-15T01:26:48;-0.80;99.90
22161;DHT22;49035;48.812;11.762;2022-11-15T01:29:14;-0.80;99.90
22161;DHT22;49035;48.812;11.762;2022-11-15T01:31:39;-0.90;99.90
22161;DHT22;49035;48.812;11.762;2022-11-15T01:34:05;-0.90;99.90
22161;DHT22;49035;48.812;11.762;2022-11-15T01:36:30;-1.00;99.90
22161;DHT22;49035;48.812;11.762;2022-11-15T01:38:57;-1.00;99.90
22161;DHT22;49035;48.812;11.762;2022-11-15T01:41:26;-1.00;99.90
22161;DHT22;49035;48.812;11.762;2022-11-15T01:43:54;-1.10;99.90
22161;DHT22;49035;48.812;11.762;2022-11-15T01:48:56;-1.00;99.90
22161;DHT22;49035;48.812;11.762;2022-11-15T01:51:25;-1.00;99.90
22161;DHT22;49035;48.812;11.762;2022-11-15T01:53:54;-1.10;99.90
22161;DHT22;49035;48.812;11.762;2022-11-15T01:56:24;-1.20;99.90
22161;DHT22;49035;48.812;11.762;2022-11-15T01:58:51;-1.20;99.90
22161;DHT22;49035;48.812;11.762;2022-11-15T02:03:59;-1.20;99.90
22161;DHT22;49035;48.812;11.762;2022-11-15T02:06:24;-1.30;99.90
22161;DHT22;49035;48.812;11.762;2022-11-15T02:08:50;-1.30;99.90
22161;DHT22;49035;48.812;11.762;2022-11-15T02:11:17;-1.40;99.90
22161;DHT22;49035;48.812;11.762;2022-11-15T02:13:43;-1.40;99.90
22161;DHT22;49035;48.812;11.762;2022-11-15T02:32:45;-1.30;99.90
22161;DHT22;49035;48.812;11.762;2022-11-15T02:35:43;-1.30;99.90
22161;DHT22;49035;48.812;11.762;2022-11-15T02:38:17;-1.20;99.90
22161;DHT22;49035;48.812;11.762;2022-11-15T02:43:36;-1.20;99.90
22161;DHT22;49035;48.812;11.762;2022-11-15T02:46:48;-1.00;99.90
22161;DHT22;49035;48.812;11.762;2022-11-15T02:49:34;-1.10;99.90
22161;DHT22;49035;48.812;11.762;2022-11-15T02:52:00;-1.20;99.90
22161;DHT22;49035;48.812;11.762;2022-11-15T02:54:31;-1.20;99.90
22161;DHT22;49035;48.812;11.762;2022-11-15T02:57:05;-1.20;99.90
22161;DHT22;49035;48.812;11.762;2022-11-15T03:00:01;-1.10;99.90
22161;DHT22;49035;48.812;11.762;2022-11-15T03:05:37;-1.00;99.90
22161;DHT22;49035;48.812;11.762;2022-11-15T03:11:09;-1.10;99.90
22161;DHT22;49035;48.812;11.762;2022-11-15T03:18:37;-1.10;99.90
22161;DHT22;49035;48.812;11.762;2022-11-15T03:21:07;-1.20;99.90
22161;DHT22;49035;48.812;11.762;2022-11-15T03:23:34;-1.20;99.90
22161;DHT22;49035;48.812;11.762;2022-11-15T03:26:01;-1.30;99.90
22161;DHT22;49035;48.812;11.762;2022-11-15T03:28:40;-1.40;99.90
22161;DHT22;49035;48.812;11.762;2022-11-15T03:31:09;-1.40;99.90
22161;DHT22;49035;48.812;11.762;2022-11-15T03:33:57;-1.20;99.90
22161;DHT22;49035;48.812;11.762;2022-11-15T03:36:25;-1.20;99.90
22161;DHT22;49035;48.812;11.762;2022-11-15T03:38:54;-1.20;99.90
22161;DHT22;49035;48.812;11.762;2022-11-15T03:41:57;-1.10;99.90
22161;DHT22;49035;48.812;11.762;2022-11-15T03:47:21;-1.00;99.90
22161;DHT22;49035;48.812;11.762;2022-11-15T03:49:57;-1.00;99.90
22161;DHT22;49035;48.812;11.762;2022-11-15T03:52:24;-0.90;99.90
22161;DHT22;49035;48.812;11.762;2022-11-15T03:54:51;-1.00;99.90
22161;DHT22;49035;48.812;11.762;2022-11-15T03:57:17;-1.20;99.90
22161;DHT22;49035;48.812;11.762;2022-11-15T03:59:43;-1.30;99.90
22161;DHT22;49035;48.812;11.762;2022-11-15T04:02:09;-1.50;99.90
22161;DHT22;49035;48.812;11.762;2022-11-15T04:04:34;-1.40;99.90
22161;DHT22;49035;48.812;11.762;2022-11-15T04:07:00;-1.30;99.90
22161;DHT22;49035;48.812;11.762;2022-11-15T04:09:25;-1.20;99.90
22161;DHT22;49035;48.812;11.762;2022-11-15T04:11:51;-1.00;99.90
22161;DHT22;49035;48.812;11.762;2022-11-15T04:14:16;-1.20;99.90
22161;DHT22;49035;48.812;11.762;2022-11-15T04:16:42;-1.30;99.90
22161;DHT22;49035;48.812;11.762;2022-11-15T04:19:07;-1.30;99.90
22161;DHT22;49035;48.812;11.762;2022-11-15T04:21:52;-1.20;99.90
22161;DHT22;49035;48.812;11.762;2022-11-15T04:24:56;-1.20;99.90
22161;DHT22;49035;48.812;11.762;2022-11-15T04:27:21;-1.10;99.90
22161;DHT22;49035;48.812;11.762;2022-11-15T04:29:47;-0.80;99.90
22161;DHT22;49035;48.812;11.762;2022-11-15T04:32:12;-0.80;99.90
22161;DHT22;49035;48.812;11.762;2022-11-15T04:34:38;-0.70;99.90
22161;DHT22;49035;48.812;11.762;2022-11-15T04:37:03;-0.70;99.90
22161;DHT22;49035;48.812;11.762;2022-11-15T04:39:39;-0.50;99.90
22161;DHT22;49035;48.812;11.762;2022-11-15T04:42:05;-0.50;99.90
22161;DHT22;49035;48.812;11.762;2022-11-15T04:44:30;-0.40;99.90
22161;DHT22;49035;48.812;11.762;2022-11-15T04:46:56;-0.40;99.90
22161;DHT22;49035;48.812;11.762;2022-11-15T04:49:22;-0.40;99.90
22161;DHT22;49035;48.812;11.762;2022-11-15T04:51:47;-0.30;99.90
22161;DHT22;49035;48.812;11.762;2022-11-15T04:54:13;-0.40;99.90
22161;DHT22;49035;48.812;11.762;2022-11-15T04:56:39;-0.60;99.90
22161;DHT22;49035;48.812;11.762;2022-11-15T04:59:04;-0.80;99.90
22161;DHT22;49035;48.812;11.762;2022-11-15T05:01:30;-0.90;99.90
22161;DHT22;49035;48.812;11.762;2022-11-15T05:03:56;-1.00;99.90
22161;DHT22;49035;48.812;11.762;2022-11-15T05:06:40;-1.10;99.90
22161;DHT22;49035;48.812;11.762;2022-11-15T05:09:05;-1.10;99.90
22161;DHT22;49035;48.812;11.762;2022-11-15T05:11:31;-1.10;99.90
22161;DHT22;49035;48.812;11.762;2022-11-15T05:13:57;-1.10;99.90
22161;DHT22;49035;48.812;11.762;2022-11-15T05:16:22;-1.20;99.90
22161;DHT22;49035;48.812;11.762;2022-11-15T05:18:54;-1.30;99.90
22161;DHT22;49035;48.812;11.762;2022-11-15T05:21:20;-1.40;99.90
22161;DHT22;49035;48.812;11.762;2022-11-15T05:23:45;-1.30;99.90
22161;DHT22;49035;48.812;11.762;2022-11-15T05:26:12;-1.30;99.90
22161;DHT22;49035;48.812;11.762;2022-11-15T05:28:38;-1.10;99.90
22161;DHT22;49035;48.812;11.762;2022-11-15T05:31:12;-1.10;99.90
22161;DHT22;49035;48.812;11.762;2022-11-15T05:33:39;-0.90;99.90
22161;DHT22;49035;48.812;11.762;2022-11-15T05:38:41;-0.80;99.90
22161;DHT22;49035;48.812;11.762;2022-11-15T05:41:07;-0.90;99.90
22161;DHT22;49035;48.812;11.762;2022-11-15T05:43:35;-0.90;99.90
22161;DHT22;49035;48.812;11.762;2022-11-15T05:46:03;-0.70;99.90
22161;DHT22;49035;48.812;11.762;2022-11-15T05:48:29;-0.80;99.90
22161;DHT22;49035;48.812;11.762;2022-11-15T05:50:55;-0.90;99.90
22161;DHT22;49035;48.812;11.762;2022-11-15T05:53:22;-1.10;99.90
22161;DHT22;49035;48.812;11.762;2022-11-15T05:55:49;-1.00;99.90
22161;DHT22;49035;48.812;11.762;2022-11-15T05:58:15;-0.90;99.90
22161;DHT22;49035;48.812;11.762;2022-11-15T06:00:40;-0.90;99.90
22161;DHT22;49035;48.812;11.762;2022-11-15T06:03:08;-0.90;99.90
22161;DHT22;49035;48.812;11.762;2022-11-15T06:05:34;-0.90;99.90
22161;DHT22;49035;48.812;11.762;2022-11-15T06:08:00;-0.80;99.90
22161;DHT22;49035;48.812;11.762;2022-11-15T06:10:26;-0.90;99.90
22161;DHT22;49035;48.812;11.762;2022-11-15T06:12:58;-0.90;99.90
22161;DHT22;49035;48.812;11.762;2022-11-15T06:15:24;-1.00;99.90
22161;DHT22;49035;48.812;11.762;2022-11-15T06:17:50;-1.00;99.90
22161;DHT22;49035;48.812;11.762;2022-11-15T06:20:16;-1.00;99.90
22161;DHT22;49035;48.812;11.762;2022-11-15T06:22:41;-0.80;99.90
22161;DHT22;49035;48.812;11.762;2022-11-15T06:25:07;-0.80;99.90
22161;DHT22;49035;48.812;11.762;2022-11-15T06:27:33;-0.70;99.90
22161;DHT22;49035;48.812;11.762;2022-11-15T06:29:58;-0.80;99.90
22161;DHT22;49035;48.812;11.762;2022-11-15T06:32:24;-0.90;99.90
22161;DHT22;49035;48.812;11.762;2022-11-15T06:34:49;-1.00;99.90
22161;DHT22;49035;48.812;11.762;2022-11-15T06:37:15;-1.10;99.90
22161;DHT22;49035;48.812;11.762;2022-11-15T06:39:41;-1.00;99.90
22161;DHT22;49035;48.812;11.762;2022-11-15T06:42:08;-1.00;99.90
22161;DHT22;49035;48.812;11.762;2022-11-15T06:44:34;-1.10;99.90
22161;DHT22;49035;48.812;11.762;2022-11-15T06:46:59;-1.10;99.90
22161;DHT22;49035;48.812;11.762;2022-11-15T06:49:25;-1.00;99.90
22161;DHT22;49035;48.812;11.762;2022-11-15T06:51:50;-0.80;99.90
22161;DHT22;49035;48.812;11.762;2022-11-15T06:54:16;-0.60;99.90
22161;DHT22;49035;48.812;11.762;2022-11-15T06:56:42;-0.50;99.90
22161;DHT22;49035;48.812;11.762;2022-11-15T06:59:07;-0.20;99.90
22161;DHT22;49035;48.812;11.762;2022-11-15T07:01:33;0.00;99.90
22161;DHT22;49035;48.812;11.762;2022-11-15T07:03:59;0.00;99.90
22161;DHT22;49035;48.812;11.762;2022-11-15T07:06:24;-0.10;99.90
22161;DHT22;49035;48.812;11.762;2022-11-15T07:08:50;-0.10;99.90
22161;DHT22;49035;48.812;11.762;2022-11-15T07:11:15;-0.20;99.90
22161;DHT22;49035;48.812;11.762;2022-11-15T07:13:41;-0.30;99.90
22161;DHT22;49035;48.812;11.762;2022-11-15T07:16:08;-0.30;99.90
22161;DHT22;49035;48.812;11.762;2022-11-15T07:18:36;-0.20;99.90
22161;DHT22;49035;48.812;11.762;2022-11-15T07:21:04;-0.10;99.90
22161;DHT22;49035;48.812;11.762;2022-11-15T07:23:29;-0.10;99.90
22161;DHT22;49035;48.812;11.762;2022-11-15T07:25:57;-0.10;99.90
22161;DHT22;49035;48.812;11.762;2022-11-15T07:28:23;-0.10;99.90
22161;DHT22;49035;48.812;11.762;2022-11-15T07:30:49;-0.10;99.90
22161;DHT22;49035;48.812;11.762;2022-11-15T07:33:14;0.00;99.90
22161;DHT22;49035;48.812;11.762;2022-11-15T07:35:40;0.00;99.90
22161;DHT22;49035;48.812;11.762;2022-11-15T07:38:06;0.10;99.90
22161;DHT22;49035;48.812;11.762;2022-11-15T07:40:31;0.30;99.90
22161;DHT22;49035;48.812;11.762;2022-11-15T07:43:02;0.30;99.90
22161;DHT22;49035;48.812;11.762;2022-11-15T07:45:28;0.30;99.90
22161;DHT22;49035;48.812;11.762;2022-11-15T07:47:54;0.30;99.90
22161;DHT22;49035;48.812;11.762;2022-11-15T07:50:22;0.70;99.90
22161;DHT22;49035;48.812;11.762;2022-11-15T07:52:56;0.90;99.90
22161;DHT22;49035;48.812;11.762;2022-11-15T07:55:23;0.80;99.90
22161;DHT22;49035;48.812;11.762;2022-11-15T07:57:49;0.70;99.90
22161;DHT22;49035;48.812;11.762;2022-11-15T08:00:15;0.90;99.90
22161;DHT22;49035;48.812;11.762;2022-11-15T08:02:41;1.40;99.90
22161;DHT22;49035;48.812;11.762;2022-11-15T08:05:07;1.40;99.90
22161;DHT22;49035;48.812;11.762;2022-11-15T08:07:33;1.50;99.90
22161;DHT22;49035;48.812;11.762;2022-11-15T08:09:59;1.70;99.90
22161;DHT22;49035;48.812;11.762;2022-11-15T08:12:29;1.70;99.90
22161;DHT22;49035;48.812;11.762;2022-11-15T08:14:55;2.00;99.90
22161;DHT22;49035;48.812;11.762;2022-11-15T08:17:23;2.30;99.90
22161;DHT22;49035;48.812;11.762;2022-11-15T08:19:48;2.60;99.90
22161;DHT22;49035;48.812;11.762;2022-11-15T08:22:14;2.60;99.90
22161;DHT22;49035;48.812;11.762;2022-11-15T08:24:40;2.60;99.90
22161;DHT22;49035;48.812;11.762;2022-11-15T08:27:06;2.80;99.90
22161;DHT22;49035;48.812;11.762;2022-11-15T08:29:41;2.90;99.90
22161;DHT22;49035;48.812;11.762;2022-11-15T08:32:06;2.90;99.90
22161;DHT22;49035;48.812;11.762;2022-11-15T08:34:32;3.10;99.90
22161;DHT22;49035;48.812;11.762;2022-11-15T08:36:58;3.10;99.90
22161;DHT22;49035;48.812;11.762;2022-11-15T08:39:24;3.40;99.90
22161;DHT22;49035;48.812;11.762;2022-11-15T08:41:49;3.40;99.90
22161;DHT22;49035;48.812;11.762;2022-11-15T08:44:15;3.50;99.90
22161;DHT22;49035;48.812;11.762;2022-11-15T08:46:40;3.50;99.90
22161;DHT22;49035;48.812;11.762;2022-11-15T08:49:06;3.70;99.90
22161;DHT22;49035;48.812;11.762;2022-11-15T08:51:31;3.80;99.90
22161;DHT22;49035;48.812;11.762;2022-11-15T08:53:57;4.00;99.90
22161;DHT22;49035;48.812;11.762;2022-11-15T08:56:23;4.20;99.90
22161;DHT22;49035;48.812;11.762;2022-11-15T08:58:48;4.20;99.90
22161;DHT22;49035;48.812;11.762;2022-11-15T09:01:19;4.30;99.90
22161;DHT22;49035;48.812;11.762;2022-11-15T09:03:45;4.40;99.90
22161;DHT22;49035;48.812;11.762;2022-11-15T09:06:11;4.70;99.90
22161;DHT22;49035;48.812;11.762;2022-11-15T09:08:36;4.90;99.90
22161;DHT22;49035;48.812;11.762;2022-11-15T09:11:04;5.10;99.90
22161;DHT22;49035;48.812;11.762;2022-11-15T09:13:30;5.20;99.90
22161;DHT22;49035;48.812;11.762;2022-11-15T09:16:00;5.40;99.90
22161;DHT22;49035;48.812;11.762;2022-11-15T09:18:26;5.50;99.90
22161;DHT22;49035;48.812;11.762;2022-11-15T09:20:55;5.50;99.90
22161;DHT22;49035;48.812;11.762;2022-11-15T09:23:22;5.60;99.90
22161;DHT22;49035;48.812;11.762;2022-11-15T09:25:48;5.60;99.90
22161;DHT22;49035;48.812;11.762;2022-11-15T09:28:13;5.70;99.90
22161;DHT22;49035;48.812;11.762;2022-11-15T09:30:39;5.80;99.90
22161;DHT22;49035;48.812;11.762;2022-11-15T09:33:09;5.90;99.90
22161;DHT22;49035;48.812;11.762;2022-11-15T09:35:35;5.90;99.90
22161;DHT22;49035;48.812;11.762;2022-11-15T09:38:01;6.10;99.90
22161;DHT22;49035;48.812;11.762;2022-11-15T09:40:27;6.20;99.90
22161;DHT22;49035;48.812;11.762;2022-11-15T09:45:28;6.40;99.90
22161;DHT22;49035;48.812;11.762;2022-11-15T09:50:51;6.70;99.90
22161;DHT22;49035;48.812;11.762;2022-11-15T09:53:59;6.90;99.90
22161;DHT22;49035;48.812;11.762;2022-11-15T09:56:29;7.00;99.90
22161;DHT22;49035;48.812;11.762;2022-11-15T09:59:08;7.10;99.90
22161;DHT22;49035;48.812;11.762;2022-11-15T10:04:22;7.30;99.90
22161;DHT22;49035;48.812;11.762;2022-11-15T10:07:06;7.40;99.90
22161;DHT22;49035;48.812;11.762;2022-11-15T10:10:04;7.60;99.90
22161;DHT22;49035;48.812;11.762;2022-11-15T10:12:33;7.70;99.90
22161;DHT22;49035;48.812;11.762;2022-11-15T10:15:03;7.80;99.90
22161;DHT22;49035;48.812;11.762;2022-11-15T10:18:02;7.90;99.90
22161;DHT22;49035;48.812;11.762;2022-11-15T10:20:40;8.10;99.90
22161;DHT22;49035;48.812;11.762;2022-11-15T10:23:11;8.20;99.90
22161;DHT22;49035;48.812;11.762;2022-11-15T10:25:37;8.40;99.90
22161;DHT22;49035;48.812;11.762;2022-11-15T10:28:21;8.50;99.90
22161;DHT22;49035;48.812;11.762;2022-11-15T10:30:56;8.70;99.90
22161;DHT22;49035;48.812;11.762;2022-11-15T10:33:34;8.90;99.90
22161;DHT22;49035;48.812;11.762;2022-11-15T10:41:21;9.10;99.90
22161;DHT22;49035;48.812;11.762;2022-11-15T10:46:28;9.30;99.90
22161;DHT22;49035;48.812;11.762;2022-11-15T10:49:17;9.50;99.90
22161;DHT22;49035;48.812;11.762;2022-11-15T10:52:01;9.50;99.90
22161;DHT22;49035;48.812;11.762;2022-11-15T10:54:33;9.60;99.90
22161;DHT22;49035;48.812;11.762;2022-11-15T10:57:10;9.70;99.90
22161;DHT22;49035;48.812;11.762;2022-11-15T10:59:37;9.90;99.90
22161;DHT22;49035;48.812;11.762;2022-11-15T11:02:36;10.00;99.90
22161;DHT22;49035;48.812;11.762;2022-11-15T11:05:05;10.10;99.90
22161;DHT22;49035;48.812;11.762;2022-11-15T11:07:33;10.10;99.90
22161;DHT22;49035;48.812;11.762;2022-11-15T11:12:33;10.20;99.90
22161;DHT22;49035;48.812;11.762;2022-11-15T11:15:11;10.30;99.90
22161;DHT22;49035;48.812;11.762;2022-11-15T11:18:22;10.40;99.90
22161;DHT22;49035;48.812;11.762;2022-11-15T11:21:02;10.60;99.90
22161;DHT22;49035;48.812;11.762;2022-11-15T11:23:57;10.70;99.90
22161;DHT22;49035;48.812;11.762;2022-11-15T11:42:56;11.30;99.90
22161;DHT22;49035;48.812;11.762;2022-11-15T11:48:14;11.40;99.90
22161;DHT22;49035;48.812;11.762;2022-11-15T11:50:45;11.40;99.90
22161;DHT22;49035;48.812;11.762;2022-11-15T11:53:24;11.50;99.90
22161;DHT22;49035;48.812;11.762;2022-11-15T11:55:54;11.60;99.90
22161;DHT22;49035;48.812;11.762;2022-11-15T11:58:34;11.70;99.90
22161;DHT22;49035;48.812;11.762;2022-11-15T12:01:13;11.80;99.90
22161;DHT22;49035;48.812;11.762;2022-11-15T12:03:46;11.80;99.90
22161;DHT22;49035;48.812;11.762;2022-11-15T12:12:09;12.00;99.90
22161;DHT22;49035;48.812;11.762;2022-11-15T12:14:43;12.10;99.90
22161;DHT22;49035;48.812;11.762;2022-11-15T12:17:11;12.10;99.90
22161;DHT22;49035;48.812;11.762;2022-11-15T12:19:38;12.10;99.90
22161;DHT22;49035;48.812;11.762;2022-11-15T12:22:16;12.00;99.90
22161;DHT22;49035;48.812;11.762;2022-11-15T12:25:02;12.10;99.90
22161;DHT22;49035;48.812;11.762;2022-11-15T12:27:53;12.20;99.90
22161;DHT22;49035;48.812;11.762;2022-11-15T12:30:21;12.20;99.90
22161;DHT22;49035;48.812;11.762;2022-11-15T12:32:59;12.30;99.90
22161;DHT22;49035;48.812;11.762;2022-11-15T12:35:35;12.40;99.90
22161;DHT22;49035;48.812;11.762;2022-11-15T12:38:03;12.40;99.90
22161;DHT22;49035;48.812;11.762;2022-11-15T12:40:37;12.50;99.90
22161;DHT22;49035;48.812;11.762;2022-11-15T12:45:43;12.70;99.90
22161;DHT22;49035;48.812;11.762;2022-11-15T13:01:09;12.60;99.90
22161;DHT22;49035;48.812;11.762;2022-11-15T13:03:35;12.60;99.90
22161;DHT22;49035;48.812;11.762;2022-11-15T13:06:38;12.50;99.90
22161;DHT22;49035;48.812;11.762;2022-11-15T13:12:00;12.40;99.90
22161;DHT22;49035;48.812;11.762;2022-11-15T13:22:18;12.60;99.90
22161;DHT22;49035;48.812;11.762;2022-11-15T13:25:02;12.70;99.90
22161;DHT22;49035;48.812;11.762;2022-11-15T13:27:28;12.80;99.90
22161;DHT22;49035;48.812;11.762;2022-11-15T13:29:54;12.70;99.90
22161;DHT22;49035;48.812;11.762;2022-11-15T13:32:21;12.70;99.90
22161;DHT22;49035;48.812;11.762;2022-11-15T13:34:49;12.70;99.90
22161;DHT22;49035;48.812;11.762;2022-11-15T13:39:49;12.70;99.90
22161;DHT22;49035;48.812;11.762;2022-11-15T13:42:19;12.70;99.90
22161;DHT22;49035;48.812;11.762;2022-11-15T13:45:00;12.60;99.90
22161;DHT22;49035;48.812;11.762;2022-11-15T13:47:27;12.70;99.90
22161;DHT22;49035;48.812;11.762;2022-11-15T13:49:56;12.60;99.90
22161;DHT22;49035;48.812;11.762;2022-11-15T13:52:27;12.50;99.90
22161;DHT22;49035;48.812;11.762;2022-11-15T13:55:21;12.50;99.90
22161;DHT22;49035;48.812;11.762;2022-11-15T13:57:50;12.40;99.90
22161;DHT22;49035;48.812;11.762;2022-11-15T14:03:22;12.50;99.90
22161;DHT22;49035;48.812;11.762;2022-11-15T14:06:07;12.50;99.90
22161;DHT22;49035;48.812;11.762;2022-11-15T14:08:36;12.40;99.90
22161;DHT22;49035;48.812;11.762;2022-11-15T14:11:17;12.30;99.90
22161;DHT22;49035;48.812;11.762;2022-11-15T14:16:39;12.20;99.90
22161;DHT22;49035;48.812;11.762;2022-11-15T14:19:08;12.20;99.90
22161;DHT22;49035;48.812;11.762;2022-11-15T14:21:35;12.10;99.90
22161;DHT22;49035;48.812;11.762;2022-11-15T14:24:21;12.00;99.90
22161;DHT22;49035;48.812;11.762;2022-11-15T14:26:47;11.90;99.90
22161;DHT22;49035;48.812;11.762;2022-11-15T14:29:27;11.90;99.90
22161;DHT22;49035;48.812;11.762;2022-11-15T14:32:12;12.00;99.90
22161;DHT22;49035;48.812;11.762;2022-11-15T14:34:38;12.10;99.90
22161;DHT22;49035;48.812;11.762;2022-11-15T14:37:03;12.10;99.90
22161;DHT22;49035;48.812;11.762;2022-11-15T14:39:29;12.00;99.90
22161;DHT22;49035;48.812;11.762;2022-11-15T14:41:54;12.00;99.90
22161;DHT22;49035;48.812;11.762;2022-11-15T14:44:20;12.30;99.90
22161;DHT22;49035;48.812;11.762;2022-11-15T14:46:47;12.60;99.90
22161;DHT22;49035;48.812;11.762;2022-11-15T14:49:14;12.90;99.90
22161;DHT22;49035;48.812;11.762;2022-11-15T14:51:40;12.90;99.90
22161;DHT22;49035;48.812;11.762;2022-11-15T14:54:09;12.80;99.90
22161;DHT22;49035;48.812;11.762;2022-11-15T14:56:35;12.70;99.90
22161;DHT22;49035;48.812;11.762;2022-11-15T14:59:01;12.60;99.90
22161;DHT22;49035;48.812;11.762;2022-11-15T15:01:27;12.20;99.90
22161;DHT22;49035;48.812;11.762;2022-11-15T15:03:53;11.50;99.90
22161;DHT22;49035;48.812;11.762;2022-11-15T15:06:22;10.90;99.90
22161;DHT22;49035;48.812;11.762;2022-11-15T15:08:48;10.30;99.90
22161;DHT22;49035;48.812;11.762;2022-11-15T15:11:30;9.90;99.90
22161;DHT22;49035;48.812;11.762;2022-11-15T15:13:56;9.40;99.90
22161;DHT22;49035;48.812;11.762;2022-11-15T15:16:24;9.10;99.90
22161;DHT22;49035;48.812;11.762;2022-11-15T15:18:50;8.80;99.90
22161;DHT22;49035;48.812;11.762;2022-11-15T15:21:26;8.60;99.90
22161;DHT22;49035;48.812;11.762;2022-11-15T15:23:53;8.40;99.90
22161;DHT22;49035;48.812;11.762;2022-11-15T15:26:23;8.20;99.90
22161;DHT22;49035;48.812;11.762;2022-11-15T15:28:49;8.00;99.90
22161;DHT22;49035;48.812;11.762;2022-11-15T15:31:16;7.80;99.90
22161;DHT22;49035;48.812;11.762;2022-11-15T15:33:42;7.60;99.90
22161;DHT22;49035;48.812;11.762;2022-11-15T15:36:11;7.40;99.90
22161;DHT22;49035;48.812;11.762;2022-11-15T15:38:37;7.30;99.90
22161;DHT22;49035;48.812;11.762;2022-11-15T15:41:11;7.20;99.90
22161;DHT22;49035;48.812;11.762;2022-11-15T15:43:37;6.90;99.90
22161;DHT22;49035;48.812;11.762;2022-11-15T15:46:03;6.70;99.90
22161;DHT22;49035;48.812;11.762;2022-11-15T15:48:28;6.50;99.90
22161;DHT22;49035;48.812;11.762;2022-11-15T15:50:54;6.30;99.90
22161;DHT22;49035;48.812;11.762;2022-11-15T15:53:20;6.30;99.90
22161;DHT22;49035;48.812;11.762;2022-11-15T15:55:45;6.20;99.90
22161;DHT22;49035;48.812;11.762;2022-11-15T15:58:11;6.00;99.90
22161;DHT22;49035;48.812;11.762;2022-11-15T16:00:37;6.00;99.90
22161;DHT22;49035;48.812;11.762;2022-11-15T16:03:04;5.90;99.90
22161;DHT22;49035;48.812;11.762;2022-11-15T16:05:29;5.70;99.90
22161;DHT22;49035;48.812;11.762;2022-11-15T16:07:55;5.70;99.90
22161;DHT22;49035;48.812;11.762;2022-11-15T16:10:39;5.50;99.90
22161;DHT22;49035;48.812;11.762;2022-11-15T16:13:04;5.40;99.90
22161;DHT22;49035;48.812;11.762;2022-11-15T16:15:31;5.50;99.90
22161;DHT22;49035;48.812;11.762;2022-11-15T16:17:59;5.60;99.90
22161;DHT22;49035;48.812;11.762;2022-11-15T16:20:39;5.70;99.90
22161;DHT22;49035;48.812;11.762;2022-11-15T16:23:09;5.40;99.90
22161;DHT22;49035;48.812;11.762;2022-11-15T16:25:53;5.10;99.90
22161;DHT22;49035;48.812;11.762;2022-11-15T16:28:21;5.00;99.90
22161;DHT22;49035;48.812;11.762;2022-11-15T16:30:48;4.80;99.90
22161;DHT22;49035;48.812;11.762;2022-11-15T16:33:14;4.80;99.90
22161;DHT22;49035;48.812;11.762;2022-11-15T16:35:40;4.80;99.90
22161;DHT22;49035;48.812;11.762;2022-11-15T16:38:06;4.60;99.90
22161;DHT22;49035;48.812;11.762;2022-11-15T16:40:33;4.50;99.90
22161;DHT22;49035;48.812;11.762;2022-11-15T16:43:00;4.30;99.90
22161;DHT22;49035;48.812;11.762;2022-11-15T16:45:27;4.40;99.90
22161;DHT22;49035;48.812;11.762;2022-11-15T16:47:54;4.20;99.90
22161;DHT22;49035;48.812;11.762;2022-11-15T16:50:22;4.20;99.90
22161;DHT22;49035;48.812;11.762;2022-11-15T16:52:53;4.40;99.90
22161;DHT22;49035;48.812;11.762;2022-11-15T16:55:20;4.20;99.90
22161;DHT22;49035;48.812;11.762;2022-11-15T16:57:46;4.20;99.90
22161;DHT22;49035;48.812;11.762;2022-11-15T17:00:12;4.10;99.90
22161;DHT22;49035;48.812;11.762;2022-11-15T17:02:44;4.00;99.90
22161;DHT22;49035;48.812;11.762;2022-11-15T17:05:10;3.90;99.90
22161;DHT22;49035;48.812;11.762;2022-11-15T17:07:37;3.90;99.90
22161;DHT22;49035;48.812;11.762;2022-11-15T17:10:02;3.80;99.90
22161;DHT22;49035;48.812;11.762;2022-11-15T17:12:28;3.80;99.90
22161;DHT22;49035;48.812;11.762;2022-11-15T17:14:55;3.80;99.90
22161;DHT22;49035;48.812;11.762;2022-11-15T17:17:21;3.70;99.90
22161;DHT22;49035;48.812;11.762;2022-11-15T17:19:47;3.60;99.90
22161;DHT22;49035;48.812;11.762;2022-11-15T17:22:13;3.70;99.90
22161;DHT22;49035;48.812;11.762;2022-11-15T17:24:38;3.90;99.90
22161;DHT22;49035;48.812;11.762;2022-11-15T17:27:04;4.20;99.90
22161;DHT22;49035;48.812;11.762;2022-11-15T17:29:29;4.10;99.90
22161;DHT22;49035;48.812;11.762;2022-11-15T17:31:55;4.20;99.90
22161;DHT22;49035;48.812;11.762;2022-11-15T17:34:21;4.10;99.90
22161;DHT22;49035;48.812;11.762;2022-11-15T17:36:47;4.20;99.90